LiveATC.Net - Listen to live air traffic control over the Internet!

ICAO: KFWS  IATA: FWS   Airport: Fort Worth Spinks Airport
City: Fort Worth   State/Province: Texas
Country: United States   Continent: North America
KFWS METAR Weather: KFWS 241015Z AUTO 13003KT 10SM CLR 18/15 A3020 RMK AO2 T01800150
KFWS Flight Activity (FlightAware)
KFWS Airport Info   (AirNav) (iFlightPlanner)
KFWS VFR Sectional Chart   (iFlightPlanner) 
KFWS IFR Low Chart   (iFlightPlanner) 
KFWS Ground/Tower
Feed Status: UP   Listeners: 0
Listen right in your browser - requires Flash (in browser, requires Flash)
Click here to listen with your own player (launches your MP3 player)
KFWS Ground/Tower Audio Archives
Spinks Ground119.475
Spinks Tower/CTAF124.625


Unauthorized use prohibited. See Terms of Service

Find LiveATC Audio Streams

Airport/ARTCC Code

(e.g., 124.400, 128.75)
Site-wide search

Browse LiveATC Feeds
LiveATC Coverage Map
Top 50 LiveATC Feeds
Bad Weather Areas

Offer a LiveATC Feed
Press Inquiries

LiveATC on iPhone
LiveATC on Android

Windows Phone
Windows 8/10

LiveATC Mobile
(Mobile browser)

ATC Audio Archives
Interesting Recordings

LiveATC Forums

Home Page
Make a Donation
LiveATC Store

Terms of Use
Privacy Policy

Canadian Air Freqs


FAA Airport Status
Nat'l Airspace Status
Arrival Demand Charts

Server Software By: